Time;durP1;ratioP1;P1;durP2;ratioP2;P2;SDS_P1;SDS_P2;PMS_P1;PMS_P2;Temp;Humidity;BMP_temperature;BMP_pressure;BME280_temperature;BME280_humidity;BME280_pressure;Samples;Min_cycle;Max_cycle;Signal;HPM_P1;HPM_P2
2024/02/06 00:01:37;;;;;;;8.15;2.15;;;;;;;;;;6130612;23;20009;-72
2024/02/06 00:04:04;;;;;;;6.25;1.90;;;;;;;;;;6128317;23;20013;-71
2024/02/06 00:06:30;;;;;;;3.78;1.85;;;;;;;;;;6155098;23;20022;-70
2024/02/06 00:08:55;;;;;;;5.53;1.50;;;;;;;;;;6132482;23;20033;-74
2024/02/06 00:11:21;;;;;;;9.43;1.80;;;;;;;;;;6132096;23;20002;-71
2024/02/06 00:13:47;;;;;;;5.47;2.25;;;;;;;;;;6131060;23;20012;-72
2024/02/06 00:16:13;;;;;;;12.63;1.83;;;;;;;;;;6132032;23;20064;-72
2024/02/06 00:18:40;;;;;;;4.13;1.55;;;;;;;;;;6132205;23;20001;-71
2024/02/06 00:21:06;;;;;;;7.32;1.98;;;;;;;;;;6159384;23;20394;-72
2024/02/06 00:23:32;;;;;;;6.07;1.48;;;;;;;;;;6134740;23;20009;-72
2024/02/06 00:25:58;;;;;;;4.80;2.47;;;;;;;;;;6109120;23;20014;-73
2024/02/06 00:28:28;;;;;;;5.20;1.50;;;;;;;;;;6133486;23;20411;-73
2024/02/06 00:30:53;;;;;;;3.88;1.88;;;;;;;;;;6158919;23;20449;-72
2024/02/06 00:33:19;;;;;;;6.03;1.60;;;;;;;;;;6133737;23;20041;-72
2024/02/06 00:35:45;;;;;;;8.27;1.77;;;;;;;;;;6160401;23;20004;-71
2024/02/06 00:38:12;;;;;;;3.78;1.52;;;;;;;;;;6161444;23;20001;-71
2024/02/06 00:40:39;;;;;;;5.68;1.58;;;;;;;;;;6159800;23;20009;-73
2024/02/06 00:43:04;;;;;;;6.60;1.60;;;;;;;;;;6108736;23;20457;-70
2024/02/06 00:45:30;;;;;;;3.70;1.75;;;;;;;;;;6159450;23;20010;-72
2024/02/06 00:47:56;;;;;;;4.70;1.65;;;;;;;;;;6133102;23;20029;-72
2024/02/06 00:50:23;;;;;;;3.15;1.27;;;;;;;;;;6160054;23;20001;-71
2024/02/06 00:52:49;;;;;;;7.57;2.13;;;;;;;;;;6159451;23;20001;-73
2024/02/06 00:55:15;;;;;;;4.57;1.50;;;;;;;;;;6134025;23;20001;-72
2024/02/06 00:57:41;;;;;;;13.27;1.90;;;;;;;;;;6109908;23;20012;-72
2024/02/06 01:00:08;;;;;;;7.18;1.80;;;;;;;;;;6160236;23;20060;-73
2024/02/06 01:02:35;;;;;;;7.68;1.75;;;;;;;;;;6133531;23;20065;-73
2024/02/06 01:05:02;;;;;;;4.93;1.63;;;;;;;;;;6159229;23;20061;-73
2024/02/06 01:07:28;;;;;;;5.50;1.65;;;;;;;;;;6159071;23;20132;-72
2024/02/06 01:09:55;;;;;;;4.20;1.45;;;;;;;;;;6132447;23;20013;-72
2024/02/06 01:12:20;;;;;;;5.10;1.20;;;;;;;;;;6160347;23;20421;-73
2024/02/06 01:14:47;;;;;;;6.35;1.55;;;;;;;;;;6133878;23;20422;-73
2024/02/06 01:17:12;;;;;;;2.50;1.33;;;;;;;;;;6133798;23;20009;-72
2024/02/06 01:19:38;;;;;;;6.63;2.17;;;;;;;;;;6133611;23;20063;-72
2024/02/06 01:22:06;;;;;;;4.07;2.28;;;;;;;;;;6134673;23;20076;-71
2024/02/06 01:24:32;;;;;;;4.43;2.25;;;;;;;;;;6109024;23;20446;-73
2024/02/06 01:26:59;;;;;;;9.07;1.45;;;;;;;;;;6160232;23;20065;-72
2024/02/06 01:29:25;;;;;;;4.28;1.35;;;;;;;;;;6135020;23;20187;-72
2024/02/06 01:31:52;;;;;;;3.05;1.13;;;;;;;;;;6162407;23;20044;-71
2024/02/06 01:34:17;;;;;;;4.60;2.13;;;;;;;;;;6111903;23;20069;-71
2024/02/06 01:36:43;;;;;;;5.88;1.70;;;;;;;;;;6138254;23;20469;-74
2024/02/06 01:39:09;;;;;;;7.40;2.13;;;;;;;;;;6163259;23;20032;-72
2024/02/06 01:41:34;;;;;;;7.40;1.50;;;;;;;;;;6165581;23;20009;-70
2024/02/06 01:44:00;;;;;;;9.40;1.80;;;;;;;;;;6137294;23;20029;-73
2024/02/06 01:46:27;;;;;;;9.27;2.05;;;;;;;;;;6135181;23;20005;-71
2024/02/06 01:48:56;;;;;;;6.18;1.60;;;;;;;;;;6134680;23;20116;-72
2024/02/06 01:51:26;;;;;;;9.07;2.37;;;;;;;;;;6134800;23;20015;-74
2024/02/06 01:53:53;;;;;;;3.22;1.75;;;;;;;;;;6133771;23;20043;-73
2024/02/06 01:56:19;;;;;;;7.27;1.83;;;;;;;;;;6133968;23;20009;-73
2024/02/06 01:58:45;;;;;;;5.60;1.85;;;;;;;;;;6159551;23;20446;-73
2024/02/06 02:01:13;;;;;;;4.00;1.58;;;;;;;;;;6134353;23;20088;-72
2024/02/06 02:03:40;;;;;;;4.60;1.50;;;;;;;;;;6133394;23;20005;-73
2024/02/06 02:06:06;;;;;;;5.50;1.38;;;;;;;;;;6159712;23;20029;-73
2024/02/06 02:08:35;;;;;;;6.90;1.52;;;;;;;;;;6157590;23;20020;-73
2024/02/06 02:11:04;;;;;;;2.20;1.30;;;;;;;;;;6109123;23;20020;-72
2024/02/06 02:13:30;;;;;;;7.43;1.83;;;;;;;;;;6132351;23;20024;-73
2024/02/06 02:15:58;;;;;;;2.83;1.80;;;;;;;;;;6133333;23;20012;-73
2024/02/06 02:18:35;;;;;;;3.87;1.70;;;;;;;;;;6108949;23;20104;-72
2024/02/06 02:21:11;;;;;;;4.20;1.98;;;;;;;;;;6158677;23;20416;-72
2024/02/06 02:23:40;;;;;;;6.03;1.75;;;;;;;;;;6107758;23;20746;-73
2024/02/06 02:26:10;;;;;;;4.73;2.23;;;;;;;;;;6132060;23;20323;-73
2024/02/06 02:28:37;;;;;;;1.97;1.40;;;;;;;;;;6159054;23;20019;-74
2024/02/06 02:31:07;;;;;;;5.07;2.03;;;;;;;;;;6132194;23;20012;-73
2024/02/06 02:33:34;;;;;;;6.10;2.03;;;;;;;;;;6107611;23;20010;-72
2024/02/06 02:36:04;;;;;;;4.10;1.67;;;;;;;;;;6132588;23;20011;-72
2024/02/06 02:38:29;;;;;;;4.83;1.77;;;;;;;;;;6159722;23;20012;-73
2024/02/06 02:40:55;;;;;;;5.03;2.00;;;;;;;;;;6132443;23;20025;-74
2024/02/06 02:43:21;;;;;;;8.20;2.20;;;;;;;;;;6158751;23;20009;-72
2024/02/06 02:45:47;;;;;;;5.47;1.97;;;;;;;;;;6132598;23;20005;-73
2024/02/06 02:48:15;;;;;;;4.83;2.07;;;;;;;;;;6132758;23;20385;-73
2024/02/06 02:50:40;;;;;;;9.60;2.23;;;;;;;;;;6158137;23;20016;-73
2024/02/06 02:53:06;;;;;;;4.60;2.10;;;;;;;;;;6132077;23;20085;-73
2024/02/06 02:55:33;;;;;;;8.00;2.10;;;;;;;;;;6130720;23;20018;-73
2024/02/06 02:57:59;;;;;;;3.00;2.03;;;;;;;;;;6158721;23;20016;-74
2024/02/06 03:00:25;;;;;;;5.23;2.00;;;;;;;;;;6157598;23;20376;-75
2024/02/06 03:02:51;;;;;;;7.37;2.47;;;;;;;;;;6159201;23;20012;-72
2024/02/06 03:05:17;;;;;;;5.87;2.07;;;;;;;;;;6135213;23;20097;-73
2024/02/06 03:07:43;;;;;;;6.97;2.50;;;;;;;;;;6134895;23;20005;-73
2024/02/06 03:10:10;;;;;;;8.67;2.40;;;;;;;;;;6160956;23;20077;-71
2024/02/06 03:12:36;;;;;;;3.15;2.20;;;;;;;;;;6134683;23;20009;-72
2024/02/06 03:15:03;;;;;;;5.40;2.30;;;;;;;;;;6133666;23;20259;-72
2024/02/06 03:17:29;;;;;;;7.03;2.43;;;;;;;;;;6132536;23;20093;-71
2024/02/06 03:19:54;;;;;;;6.40;2.60;;;;;;;;;;6159435;23;20002;-73
2024/02/06 03:22:21;;;;;;;6.47;2.33;;;;;;;;;;6157836;23;20001;-73
2024/02/06 03:24:47;;;;;;;6.60;2.23;;;;;;;;;;6159334;23;20416;-72
2024/02/06 03:27:13;;;;;;;8.00;2.87;;;;;;;;;;6134287;23;20013;-72
2024/02/06 03:29:42;;;;;;;6.33;2.50;;;;;;;;;;6134474;23;20001;-72
2024/02/06 03:32:09;;;;;;;6.15;2.70;;;;;;;;;;6133192;23;20012;-71
2024/02/06 03:34:37;;;;;;;7.10;2.73;;;;;;;;;;6108401;23;20010;-72
2024/02/06 03:37:03;;;;;;;5.20;2.60;;;;;;;;;;6158398;23;20001;-73
2024/02/06 03:39:30;;;;;;;5.60;2.50;;;;;;;;;;6158920;23;20012;-73
2024/02/06 03:41:56;;;;;;;4.97;2.30;;;;;;;;;;6132775;23;20419;-71
2024/02/06 03:44:22;;;;;;;4.23;2.60;;;;;;;;;;6158290;23;20005;-73
2024/02/06 03:46:48;;;;;;;5.90;2.60;;;;;;;;;;6131568;23;20119;-73
2024/02/06 03:49:13;;;;;;;5.20;2.60;;;;;;;;;;6157578;23;20005;-72
2024/02/06 03:51:39;;;;;;;7.87;2.53;;;;;;;;;;6157775;23;20025;-72
2024/02/06 03:54:05;;;;;;;6.10;2.80;;;;;;;;;;6132168;23;20005;-72
2024/02/06 03:56:31;;;;;;;6.23;2.53;;;;;;;;;;6108632;23;20331;-72
2024/02/06 03:58:57;;;;;;;4.27;2.50;;;;;;;;;;6133401;23;20013;-73
2024/02/06 04:01:22;;;;;;;6.53;2.60;;;;;;;;;;6134766;23;20016;-73
2024/02/06 04:03:49;;;;;;;9.73;2.77;;;;;;;;;;6133241;23;20017;-72
2024/02/06 04:06:16;;;;;;;5.97;2.55;;;;;;;;;;6158811;23;20072;-73
2024/02/06 04:08:42;;;;;;;6.00;2.90;;;;;;;;;;6133443;23;20009;-72
2024/02/06 04:11:09;;;;;;;6.23;2.83;;;;;;;;;;6109481;23;20012;-73
2024/02/06 04:13:39;;;;;;;4.90;2.33;;;;;;;;;;6160926;23;20196;-72
2024/02/06 04:16:05;;;;;;;6.47;2.42;;;;;;;;;;6132935;23;20025;-73
2024/02/06 04:18:34;;;;;;;8.50;2.88;;;;;;;;;;6160338;23;20458;-73
2024/02/06 04:21:00;;;;;;;3.15;2.13;;;;;;;;;;6159698;23;20104;-71
2024/02/06 04:23:26;;;;;;;7.70;2.65;;;;;;;;;;6133280;23;20016;-73
2024/02/06 04:25:52;;;;;;;6.90;2.85;;;;;;;;;;6159649;23;20376;-72
2024/02/06 04:28:18;;;;;;;11.20;3.15;;;;;;;;;;6132834;23;20005;-72
2024/02/06 04:30:46;;;;;;;6.88;2.40;;;;;;;;;;6133315;23;20032;-72
2024/02/06 04:33:11;;;;;;;8.05;2.80;;;;;;;;;;6160574;23;20009;-76
2024/02/06 04:35:37;;;;;;;4.75;2.53;;;;;;;;;;6160693;23;20057;-73
2024/02/06 04:38:04;;;;;;;3.75;2.70;;;;;;;;;;6158277;23;20010;-69
2024/02/06 04:40:30;;;;;;;4.40;2.58;;;;;;;;;;6130047;23;20010;-72
2024/02/06 04:42:58;;;;;;;7.53;2.75;;;;;;;;;;6133819;23;20067;-73
2024/02/06 04:45:24;;;;;;;3.08;2.45;;;;;;;;;;6158446;23;20060;-71
2024/02/06 04:47:50;;;;;;;7.95;2.70;;;;;;;;;;6131954;23;20431;-72
2024/02/06 04:50:18;;;;;;;5.53;2.85;;;;;;;;;;6133078;23;20010;-71
2024/02/06 04:52:45;;;;;;;5.13;2.40;;;;;;;;;;6160831;23;20001;-74
2024/02/06 04:55:12;;;;;;;11.32;2.85;;;;;;;;;;6160697;23;20021;-73
2024/02/06 04:57:38;;;;;;;7.38;2.95;;;;;;;;;;6135044;23;20083;-71
2024/02/06 05:00:11;;;;;;;5.65;2.45;;;;;;;;;;6161114;23;20005;-71
2024/02/06 05:02:36;;;;;;;10.85;2.72;;;;;;;;;;6136466;23;20009;-74
2024/02/06 05:05:02;;;;;;;12.38;5.05;;;;;;;;;;6133394;23;20026;-72
2024/02/06 05:07:28;;;;;;;3.65;2.55;;;;;;;;;;6159752;23;20012;-72
2024/02/06 05:09:54;;;;;;;5.85;2.40;;;;;;;;;;6161314;23;20084;-72
2024/02/06 05:12:20;;;;;;;4.72;2.80;;;;;;;;;;6135922;23;20009;-72
2024/02/06 05:14:45;;;;;;;5.90;2.17;;;;;;;;;;6136116;23;20037;-72
2024/02/06 05:17:11;;;;;;;7.55;2.83;;;;;;;;;;6136285;23;20002;-72
2024/02/06 05:19:41;;;;;;;8.05;2.28;;;;;;;;;;6136029;23;20009;-72
2024/02/06 05:22:08;;;;;;;7.30;3.60;;;;;;;;;;6135093;23;20035;-73
2024/02/06 05:24:34;;;;;;;4.75;2.38;;;;;;;;;;6162050;23;20005;-73
2024/02/06 05:27:03;;;;;;;5.57;2.97;;;;;;;;;;6134627;23;20008;-72
2024/02/06 05:29:30;;;;;;;6.13;2.80;;;;;;;;;;6110170;23;20064;-74
2024/02/06 05:31:56;;;;;;;5.38;2.72;;;;;;;;;;6159565;23;20009;-72
2024/02/06 05:34:21;;;;;;;4.07;3.00;;;;;;;;;;6133638;23;20012;-72
2024/02/06 05:36:47;;;;;;;8.60;2.72;;;;;;;;;;6133580;23;20331;-72
2024/02/06 05:39:13;;;;;;;7.88;2.97;;;;;;;;;;6160850;23;19998;-73
2024/02/06 05:41:39;;;;;;;10.50;3.58;;;;;;;;;;6133224;23;20342;-72
2024/02/06 05:44:05;;;;;;;12.20;2.97;;;;;;;;;;6133385;23;20001;-71
2024/02/06 05:46:32;;;;;;;6.07;3.10;;;;;;;;;;6132952;23;20411;-71
2024/02/06 05:48:59;;;;;;;8.73;3.70;;;;;;;;;;6133062;23;20029;-72
2024/02/06 05:51:25;;;;;;;9.27;3.20;;;;;;;;;;6133337;23;20006;-72
2024/02/06 05:53:51;;;;;;;9.25;2.92;;;;;;;;;;6132883;23;20010;-71
2024/02/06 05:56:16;;;;;;;10.52;3.00;;;;;;;;;;6135949;23;20434;-73
2024/02/06 05:58:43;;;;;;;6.30;3.00;;;;;;;;;;6161227;23;20020;-71
2024/02/06 06:01:11;;;;;;;9.43;3.40;;;;;;;;;;6133084;23;20312;-72
2024/02/06 06:03:37;;;;;;;8.05;3.50;;;;;;;;;;6159705;23;20001;-73
2024/02/06 06:06:03;;;;;;;8.23;3.22;;;;;;;;;;6134162;23;20017;-73
2024/02/06 06:08:28;;;;;;;12.10;4.35;;;;;;;;;;6134837;23;20056;-72
2024/02/06 06:10:56;;;;;;;10.05;2.90;;;;;;;;;;6109147;23;20389;-72
2024/02/06 06:13:23;;;;;;;5.82;2.92;;;;;;;;;;6160174;23;20331;-71
2024/02/06 06:15:49;;;;;;;14.93;3.72;;;;;;;;;;6134190;23;20028;-73
2024/02/06 06:18:16;;;;;;;6.93;3.10;;;;;;;;;;6132598;23;20064;-72
2024/02/06 06:20:41;;;;;;;8.15;3.15;;;;;;;;;;6159595;23;20010;-72
2024/02/06 06:23:07;;;;;;;10.93;3.65;;;;;;;;;;6134380;23;20089;-73
2024/02/06 06:25:32;;;;;;;8.63;3.80;;;;;;;;;;6160258;23;20019;-71
2024/02/06 06:27:58;;;;;;;9.18;3.65;;;;;;;;;;6134161;23;20009;-74
2024/02/06 06:30:24;;;;;;;6.95;3.25;;;;;;;;;;6131630;23;20062;-72
2024/02/06 06:32:50;;;;;;;9.23;2.97;;;;;;;;;;6131894;23;20006;-72
2024/02/06 06:35:16;;;;;;;11.48;3.70;;;;;;;;;;6131405;23;20419;-72
2024/02/06 06:37:45;;;;;;;9.32;3.83;;;;;;;;;;6131293;23;20005;-72
2024/02/06 06:40:11;;;;;;;7.68;3.15;;;;;;;;;;6131506;23;20012;-72
2024/02/06 06:42:37;;;;;;;9.68;3.20;;;;;;;;;;6157587;23;20001;-71
2024/02/06 06:45:03;;;;;;;10.77;4.60;;;;;;;;;;6132026;23;20032;-72
2024/02/06 06:47:29;;;;;;;8.18;4.47;;;;;;;;;;6158973;23;19998;-76
2024/02/06 06:49:56;;;;;;;11.52;3.70;;;;;;;;;;6157910;23;20013;-72
2024/02/06 06:52:22;;;;;;;9.50;5.43;;;;;;;;;;6157862;23;20017;-72
2024/02/06 06:54:47;;;;;;;5.90;3.13;;;;;;;;;;6130878;23;20051;-73
2024/02/06 06:57:13;;;;;;;6.82;3.25;;;;;;;;;;6129691;23;20399;-72
2024/02/06 06:59:39;;;;;;;12.75;3.47;;;;;;;;;;6131943;23;20021;-73
2024/02/06 07:02:05;;;;;;;7.70;3.50;;;;;;;;;;6156927;23;20096;-73
2024/02/06 07:04:31;;;;;;;6.60;3.25;;;;;;;;;;6151005;23;20001;-72
2024/02/06 07:06:58;;;;;;;7.13;3.78;;;;;;;;;;6119667;23;20038;-71
2024/02/06 07:09:27;;;;;;;10.43;3.65;;;;;;;;;;6095264;23;20025;-73
2024/02/06 07:11:53;;;;;;;10.90;3.90;;;;;;;;;;6121659;23;20105;-73
2024/02/06 07:14:19;;;;;;;10.40;3.80;;;;;;;;;;6120787;23;20070;-73
2024/02/06 07:16:44;;;;;;;11.10;3.30;;;;;;;;;;6095765;23;20037;-73
2024/02/06 07:19:10;;;;;;;8.10;3.17;;;;;;;;;;6120113;23;20012;-73
2024/02/06 07:21:36;;;;;;;6.40;3.85;;;;;;;;;;6121533;23;20004;-73
2024/02/06 07:24:04;;;;;;;7.55;3.50;;;;;;;;;;6096033;23;20060;-75
2024/02/06 07:26:31;;;;;;;9.50;3.65;;;;;;;;;;6120524;23;20056;-72
2024/02/06 07:28:57;;;;;;;10.48;4.97;;;;;;;;;;6121327;23;20048;-73
2024/02/06 07:31:23;;;;;;;5.13;3.60;;;;;;;;;;6120241;23;20021;-72
2024/02/06 07:33:49;;;;;;;9.52;3.60;;;;;;;;;;6120119;23;20014;-74
2024/02/06 07:36:15;;;;;;;10.60;3.78;;;;;;;;;;6121738;23;20024;-72
2024/02/06 07:38:46;;;;;;;13.25;3.88;;;;;;;;;;6122205;23;20010;-76
2024/02/06 07:41:12;;;;;;;8.05;3.45;;;;;;;;;;6111800;23;20010;-71
2024/02/06 07:43:37;;;;;;;8.45;3.67;;;;;;;;;;6122104;23;20148;-73
2024/02/06 07:46:04;;;;;;;11.82;3.92;;;;;;;;;;6120268;23;20089;-73
2024/02/06 07:48:31;;;;;;;10.10;4.35;;;;;;;;;;6121759;23;20013;-73
2024/02/06 07:50:56;;;;;;;7.30;2.92;;;;;;;;;;6121241;23;20001;-72
2024/02/06 07:53:22;;;;;;;10.07;3.53;;;;;;;;;;6116771;23;20020;-73
2024/02/06 07:55:48;;;;;;;7.38;3.40;;;;;;;;;;6119521;23;20031;-75
2024/02/06 07:58:13;;;;;;;7.80;3.03;;;;;;;;;;6119508;23;20002;-75
2024/02/06 08:00:40;;;;;;;6.65;2.85;;;;;;;;;;6119131;23;20010;-75
2024/02/06 08:03:06;;;;;;;6.85;3.03;;;;;;;;;;6118446;23;20013;-75
2024/02/06 08:05:32;;;;;;;5.95;2.80;;;;;;;;;;6118019;23;20014;-74
2024/02/06 08:07:58;;;;;;;7.82;2.92;;;;;;;;;;6120401;23;20415;-73
2024/02/06 08:10:24;;;;;;;13.52;3.78;;;;;;;;;;6120210;23;20033;-73
2024/02/06 08:12:50;;;;;;;8.52;3.40;;;;;;;;;;6120200;23;20005;-73
2024/02/06 08:15:16;;;;;;;10.32;3.42;;;;;;;;;;6118476;23;20006;-74
2024/02/06 08:17:46;;;;;;;8.40;3.08;;;;;;;;;;6120899;23;20339;-72
2024/02/06 08:20:13;;;;;;;10.75;3.60;;;;;;;;;;6114221;23;20439;-70
2024/02/06 08:22:38;;;;;;;6.93;3.05;;;;;;;;;;6096050;23;20017;-73
2024/02/06 08:25:07;;;;;;;7.45;2.80;;;;;;;;;;6120880;23;20002;-73
2024/02/06 08:27:35;;;;;;;6.50;2.97;;;;;;;;;;6120628;23;20053;-74
2024/02/06 08:30:03;;;;;;;8.50;2.90;;;;;;;;;;6117579;23;20014;-74
2024/02/06 08:32:29;;;;;;;7.22;3.15;;;;;;;;;;6117360;23;20045;-72
2024/02/06 08:34:55;;;;;;;6.20;3.20;;;;;;;;;;6116748;23;20371;-73
2024/02/06 08:37:21;;;;;;;4.30;2.67;;;;;;;;;;6119533;23;20010;-73
2024/02/06 08:39:47;;;;;;;6.03;2.88;;;;;;;;;;6119131;23;20071;-73
2024/02/06 08:42:13;;;;;;;7.03;3.20;;;;;;;;;;6123478;23;20221;-72
2024/02/06 08:44:38;;;;;;;7.35;2.40;;;;;;;;;;6118934;23;20037;-74
2024/02/06 08:47:04;;;;;;;6.20;3.05;;;;;;;;;;6122225;23;20006;-74
2024/02/06 08:49:30;;;;;;;9.80;2.60;;;;;;;;;;6119813;23;20014;-74
2024/02/06 08:51:59;;;;;;;4.30;2.33;;;;;;;;;;6121644;23;20009;-76
2024/02/06 08:54:25;;;;;;;7.82;2.53;;;;;;;;;;6120105;23;20010;-73
2024/02/06 08:56:54;;;;;;;6.68;2.22;;;;;;;;;;6121613;23;20380;-72
2024/02/06 08:59:20;;;;;;;5.25;2.33;;;;;;;;;;6119934;23;20005;-71
2024/02/06 09:01:46;;;;;;;6.75;2.35;;;;;;;;;;6121319;23;20040;-71
2024/02/06 09:04:20;;;;;;;5.57;1.80;;;;;;;;;;6121312;23;20014;-72
2024/02/06 09:06:47;;;;;;;7.85;2.75;;;;;;;;;;6147956;23;20070;-74
2024/02/06 09:09:13;;;;;;;6.13;2.22;;;;;;;;;;6149252;23;20011;-74
2024/02/06 09:11:40;;;;;;;6.35;2.50;;;;;;;;;;6125228;23;20033;-74
2024/02/06 09:14:06;;;;;;;5.85;2.33;;;;;;;;;;6124878;23;20295;-73
2024/02/06 09:16:32;;;;;;;7.93;2.60;;;;;;;;;;6124466;23;20031;-72
2024/02/06 09:18:57;;;;;;;3.38;2.13;;;;;;;;;;6148399;23;20012;-75
2024/02/06 09:21:23;;;;;;;4.63;1.92;;;;;;;;;;6150783;23;20509;-74
2024/02/06 09:23:48;;;;;;;8.63;2.80;;;;;;;;;;6124016;23;20001;-73
2024/02/06 09:26:15;;;;;;;7.75;2.17;;;;;;;;;;6119767;23;20010;-72
2024/02/06 09:28:44;;;;;;;3.83;2.10;;;;;;;;;;6125795;23;20355;-72
2024/02/06 09:31:11;;;;;;;7.30;2.17;;;;;;;;;;6123508;23;20009;-73
2024/02/06 09:33:37;;;;;;;4.13;2.35;;;;;;;;;;6123478;23;20009;-72
2024/02/06 09:36:04;;;;;;;3.95;2.08;;;;;;;;;;6123019;23;20024;-73
2024/02/06 09:38:29;;;;;;;4.55;2.58;;;;;;;;;;6150787;23;20013;-72
2024/02/06 09:40:56;;;;;;;5.90;1.80;;;;;;;;;;6136193;23;20009;-73
2024/02/06 09:43:23;;;;;;;3.95;1.88;;;;;;;;;;6099956;23;20079;-74
2024/02/06 09:45:50;;;;;;;5.18;2.20;;;;;;;;;;6100150;23;20036;-72
2024/02/06 09:48:17;;;;;;;5.18;2.35;;;;;;;;;;6149332;23;20284;-73
2024/02/06 09:50:43;;;;;;;4.78;2.08;;;;;;;;;;6125068;23;20064;-74
2024/02/06 09:53:11;;;;;;;2.60;1.60;;;;;;;;;;6124288;23;20115;-74
2024/02/06 09:55:39;;;;;;;1.65;1.38;;;;;;;;;;6123863;23;20068;-73
2024/02/06 09:58:06;;;;;;;2.80;1.25;;;;;;;;;;6096807;23;20028;-73
2024/02/06 10:00:34;;;;;;;3.60;1.80;;;;;;;;;;6146875;23;20005;-72
2024/02/06 10:03:04;;;;;;;3.80;1.92;;;;;;;;;;6100929;23;20009;-72
2024/02/06 10:05:35;;;;;;;6.55;1.60;;;;;;;;;;6125463;23;20020;-71
2024/02/06 10:08:02;;;;;;;2.20;1.35;;;;;;;;;;6129662;23;20033;-75
2024/02/06 10:10:30;;;;;;;5.72;1.63;;;;;;;;;;6122773;23;20044;-74
2024/02/06 10:12:58;;;;;;;4.07;1.40;;;;;;;;;;6120713;23;20009;-71
2024/02/06 10:15:24;;;;;;;3.40;1.60;;;;;;;;;;6118537;23;20012;-73
2024/02/06 10:17:49;;;;;;;2.75;1.67;;;;;;;;;;6117999;23;20096;-72
2024/02/06 10:20:15;;;;;;;7.82;1.70;;;;;;;;;;6120059;23;20002;-72
2024/02/06 10:22:41;;;;;;;3.42;1.55;;;;;;;;;;6120640;23;20013;-72
2024/02/06 10:25:09;;;;;;;5.72;1.60;;;;;;;;;;6093421;23;20010;-72
2024/02/06 10:27:35;;;;;;;3.65;1.50;;;;;;;;;;6118852;23;20010;-73
2024/02/06 10:30:10;;;;;;;3.33;1.65;;;;;;;;;;6114472;23;20457;-73
2024/02/06 10:32:37;;;;;;;4.07;1.80;;;;;;;;;;6117246;23;20213;-74
2024/02/06 10:35:05;;;;;;;4.57;1.25;;;;;;;;;;6120474;23;20090;-74
2024/02/06 10:37:36;;;;;;;2.38;1.80;;;;;;;;;;6121556;23;20014;-71
2024/02/06 10:40:09;;;;;;;4.32;1.98;;;;;;;;;;6125402;23;20002;-73
2024/02/06 10:42:39;;;;;;;5.15;1.55;;;;;;;;;;6121978;23;20035;-75
2024/02/06 10:45:07;;;;;;;2.78;1.38;;;;;;;;;;6118566;23;20010;-74
2024/02/06 10:47:33;;;;;;;10.63;1.73;;;;;;;;;;6095066;23;20013;-72
2024/02/06 10:50:06;;;;;;;2.70;1.50;;;;;;;;;;6116428;23;20017;-72
2024/02/06 10:52:32;;;;;;;4.03;1.77;;;;;;;;;;6120228;23;20010;-72
2024/02/06 10:54:58;;;;;;;2.15;1.60;;;;;;;;;;6113954;23;20335;-73
2024/02/06 10:57:32;;;;;;;3.40;1.40;;;;;;;;;;6087617;23;20013;-72
2024/02/06 11:00:15;;;;;;;2.85;1.30;;;;;;;;;;6118213;23;20021;-74
2024/02/06 11:02:46;;;;;;;5.22;1.85;;;;;;;;;;6121322;23;20006;-74
2024/02/06 11:05:24;;;;;;;6.32;1.77;;;;;;;;;;6123462;23;20048;-73
2024/02/06 11:08:11;;;;;;;5.38;1.20;;;;;;;;;;6118617;23;20044;-71
2024/02/06 11:10:43;;;;;;;3.55;1.45;;;;;;;;;;6147809;23;20006;-74
2024/02/06 11:13:22;;;;;;;8.90;2.20;;;;;;;;;;6097682;23;20064;-75
2024/02/06 11:15:49;;;;;;;4.10;1.58;;;;;;;;;;6147433;23;20233;-72
2024/02/06 11:18:18;;;;;;;3.85;1.60;;;;;;;;;;6121986;23;20578;-73
2024/02/06 11:20:47;;;;;;;4.80;1.70;;;;;;;;;;6121755;23;20021;-73
2024/02/06 11:23:18;;;;;;;4.13;1.25;;;;;;;;;;6095601;23;20040;-72
2024/02/06 11:26:06;;;;;;;1.50;1.40;;;;;;;;;;6121643;23;20415;-73
2024/02/06 11:28:33;;;;;;;7.55;1.77;;;;;;;;;;6121752;23;20557;-72
2024/02/06 11:31:03;;;;;;;4.43;1.80;;;;;;;;;;6147722;23;20016;-73
2024/02/06 11:33:30;;;;;;;2.20;1.48;;;;;;;;;;6122014;23;20323;-73
2024/02/06 11:36:13;;;;;;;4.07;1.73;;;;;;;;;;6095895;23;20096;-73
2024/02/06 11:38:40;;;;;;;3.60;1.60;;;;;;;;;;6149963;23;20029;-72
2024/02/06 11:41:22;;;;;;;5.85;1.05;;;;;;;;;;6147757;23;20014;-71
2024/02/06 11:43:50;;;;;;;2.17;1.40;;;;;;;;;;6121631;23;20020;-72
2024/02/06 11:46:22;;;;;;;1.90;1.42;;;;;;;;;;6121853;23;20005;-72
2024/02/06 11:48:49;;;;;;;3.22;1.50;;;;;;;;;;6149945;23;20016;-73
2024/02/06 11:51:25;;;;;;;8.88;1.70;;;;;;;;;;6149813;23;20014;-71
2024/02/06 11:53:51;;;;;;;6.40;1.52;;;;;;;;;;6148618;23;20342;-72
2024/02/06 11:56:17;;;;;;;7.13;1.60;;;;;;;;;;6122518;23;20263;-73
2024/02/06 11:58:44;;;;;;;2.47;1.15;;;;;;;;;;6121846;23;20017;-76
2024/02/06 12:01:11;;;;;;;6.20;1.60;;;;;;;;;;6124529;23;20013;-73
2024/02/06 12:03:36;;;;;;;3.22;1.60;;;;;;;;;;6125490;23;20347;-74
2024/02/06 12:06:52;;;;;;;1.38;1.08;;;;;;;;;;6149861;23;20021;-77
2024/02/06 12:09:17;;;;;;;6.18;1.45;;;;;;;;;;6140896;23;20017;-73
2024/02/06 12:11:48;;;;;;;4.25;1.70;;;;;;;;;;6123039;23;20458;-73
2024/02/06 12:14:17;;;;;;;6.50;1.70;;;;;;;;;;6121665;23;20033;-73
2024/02/06 12:16:45;;;;;;;4.18;1.77;;;;;;;;;;6123050;23;20306;-73
2024/02/06 12:19:11;;;;;;;8.57;2.05;;;;;;;;;;6126388;23;20006;-74
2024/02/06 12:21:37;;;;;;;3.63;1.60;;;;;;;;;;6152509;23;20389;-74
2024/02/06 12:24:04;;;;;;;1.75;1.15;;;;;;;;;;6124112;23;20037;-75
2024/02/06 12:26:31;;;;;;;7.20;2.83;;;;;;;;;;6125949;23;20010;-72
2024/02/06 12:29:05;;;;;;;3.42;1.83;;;;;;;;;;6126529;23;20426;-72
2024/02/06 12:31:36;;;;;;;3.72;1.63;;;;;;;;;;6125918;23;20016;-74
2024/02/06 12:34:05;;;;;;;2.90;1.95;;;;;;;;;;6125046;23;20056;-74
2024/02/06 12:36:31;;;;;;;2.72;1.60;;;;;;;;;;6151859;23;19997;-73
2024/02/06 12:38:57;;;;;;;5.20;1.60;;;;;;;;;;6124930;23;20013;-74
2024/02/06 12:42:12;;;;;;;6.10;1.88;;;;;;;;;;6152548;23;20009;-74
2024/02/06 12:44:38;;;;;;;2.58;1.63;;;;;;;;;;6140857;23;20009;-73
2024/02/06 12:47:04;;;;;;;3.88;1.65;;;;;;;;;;6124212;23;20088;-73
2024/02/06 12:49:29;;;;;;;5.53;2.40;;;;;;;;;;6150397;23;20040;-75
2024/02/06 12:51:57;;;;;;;2.65;1.60;;;;;;;;;;6150445;23;20005;-74
2024/02/06 12:54:26;;;;;;;2.92;1.38;;;;;;;;;;6122935;23;20032;-74
2024/02/06 12:56:56;;;;;;;3.53;1.88;;;;;;;;;;6151671;23;20001;-76
2024/02/06 12:59:22;;;;;;;1.50;1.40;;;;;;;;;;6099359;23;20012;-73
2024/02/06 13:01:49;;;;;;;5.32;1.60;;;;;;;;;;6150826;23;20009;-72
2024/02/06 13:05:13;;;;;;;3.80;1.60;;;;;;;;;;6125025;23;20056;-75
2024/02/06 13:07:39;;;;;;;4.82;1.67;;;;;;;;;;6113803;23;20041;-72
2024/02/06 13:10:15;;;;;;;4.32;2.10;;;;;;;;;;6121967;23;20016;-74
2024/02/06 13:12:41;;;;;;;4.35;1.85;;;;;;;;;;6149311;23;20012;-73
2024/02/06 13:15:08;;;;;;;4.30;1.92;;;;;;;;;;6152574;23;20484;-74
2024/02/06 13:17:34;;;;;;;4.38;2.00;;;;;;;;;;6155054;23;20013;-74
2024/02/06 13:20:11;;;;;;;5.45;2.22;;;;;;;;;;6149047;23;20029;-71
2024/02/06 13:22:37;;;;;;;4.63;1.73;;;;;;;;;;6150060;23;20009;-72
2024/02/06 13:25:07;;;;;;;3.35;1.58;;;;;;;;;;6125551;23;20402;-74
2024/02/06 13:27:33;;;;;;;5.38;2.00;;;;;;;;;;6103108;23;20427;-75
2024/02/06 13:30:00;;;;;;;3.47;2.17;;;;;;;;;;6153989;23;20052;-72
2024/02/06 13:32:26;;;;;;;3.38;1.80;;;;;;;;;;6151990;23;20025;-73
2024/02/06 13:34:53;;;;;;;3.85;1.42;;;;;;;;;;6151267;23;20371;-74
2024/02/06 13:37:20;;;;;;;2.47;1.70;;;;;;;;;;6149260;23;20005;-71
2024/02/06 13:39:49;;;;;;;7.50;1.90;;;;;;;;;;6121942;23;20019;-74
2024/02/06 13:42:15;;;;;;;3.47;1.48;;;;;;;;;;6152860;23;20005;-72
2024/02/06 13:44:40;;;;;;;2.80;1.35;;;;;;;;;;6123862;23;20021;-73
2024/02/06 13:47:08;;;;;;;2.00;1.30;;;;;;;;;;6125255;23;20008;-73
2024/02/06 13:49:33;;;;;;;3.40;1.50;;;;;;;;;;6124730;23;20009;-74
2024/02/06 13:51:59;;;;;;;2.30;1.58;;;;;;;;;;6149771;23;20367;-72
2024/02/06 13:54:25;;;;;;;2.03;1.35;;;;;;;;;;6150754;23;20322;-73
2024/02/06 13:56:51;;;;;;;3.65;1.35;;;;;;;;;;6150599;23;20080;-72
2024/02/06 13:59:20;;;;;;;7.15;1.38;;;;;;;;;;6123995;23;20068;-72
2024/02/06 14:01:48;;;;;;;6.82;2.28;;;;;;;;;;6150068;23;20378;-72
2024/02/06 14:04:13;;;;;;;4.20;1.52;;;;;;;;;;6125312;23;20066;-75
2024/02/06 14:06:40;;;;;;;3.08;1.50;;;;;;;;;;6150683;23;20022;-74
2024/02/06 14:09:08;;;;;;;3.08;1.23;;;;;;;;;;6150453;23;20307;-74
2024/02/06 14:11:33;;;;;;;3.03;1.48;;;;;;;;;;6124299;23;20375;-73
2024/02/06 14:13:59;;;;;;;2.33;1.52;;;;;;;;;;6148017;23;20072;-72
2024/02/06 14:16:25;;;;;;;3.90;1.50;;;;;;;;;;6147885;23;20008;-76
2024/02/06 14:18:51;;;;;;;5.18;1.58;;;;;;;;;;6125684;23;20492;-72
2024/02/06 14:21:17;;;;;;;2.58;1.30;;;;;;;;;;6159712;23;20005;-75
2024/02/06 14:23:42;;;;;;;2.95;1.60;;;;;;;;;;6151335;23;20160;-74
2024/02/06 14:26:09;;;;;;;1.73;1.23;;;;;;;;;;6123925;23;20012;-75
2024/02/06 14:28:36;;;;;;;2.85;1.23;;;;;;;;;;6125601;23;20357;-73
2024/02/06 14:31:01;;;;;;;3.55;1.75;;;;;;;;;;6125222;23;20013;-74
2024/02/06 14:33:27;;;;;;;2.28;1.40;;;;;;;;;;6125072;23;20013;-76
2024/02/06 14:35:52;;;;;;;7.28;1.33;;;;;;;;;;6125246;23;20036;-76
2024/02/06 14:38:18;;;;;;;4.13;1.55;;;;;;;;;;6150913;23;20076;-75
2024/02/06 14:40:46;;;;;;;1.98;1.27;;;;;;;;;;6152735;23;20081;-75
2024/02/06 14:43:13;;;;;;;2.60;1.30;;;;;;;;;;6152640;23;20006;-74